createdAt,value
2019-03-03T00:29:35.863Z,110.95
2019-03-03T00:59:58.090Z,104.95
2019-03-03T01:30:02.969Z,106.90
2019-03-03T03:01:15.782Z,83.73
2019-03-03T03:31:39.381Z,74.90
2019-03-03T04:02:01.243Z,69.30
2019-03-03T04:32:15.318Z,78.67
2019-03-03T05:02:23.799Z,74.05
2019-03-03T05:32:27.512Z,77.08
2019-03-03T06:02:31.229Z,89.42
2019-03-03T06:32:34.967Z,77.87
2019-03-03T07:02:39.049Z,78.70
2019-03-03T07:32:53.375Z,50.83
2019-03-03T08:02:57.436Z,38.25
2019-03-03T08:33:01.127Z,16.37
2019-03-03T09:03:09.491Z,18.67
2019-03-03T09:33:23.564Z,16.57
2019-03-03T10:03:28.901Z,16.85
2019-03-03T10:33:34.242Z,25.77
2019-03-03T11:03:42.221Z,22.05
2019-03-03T11:33:47.561Z,20.82
2019-03-03T12:03:52.894Z,21.62
2019-03-03T12:34:01.152Z,19.30
2019-03-03T13:04:09.594Z,17.27
2019-03-03T13:34:31.105Z,15.18
2019-03-03T14:04:34.877Z,16.35
2019-03-03T14:34:38.614Z,21.35
2019-03-03T15:04:42.430Z,17.48
2019-03-03T15:34:46.098Z,20.23
2019-03-03T16:04:49.839Z,25.37
2019-03-03T16:34:53.554Z,17.05
2019-03-03T17:04:57.249Z,29.40
2019-03-03T17:35:00.972Z,27.02
2019-03-03T18:05:05.373Z,30.30
2019-03-03T18:35:09.067Z,26.82
2019-03-03T19:05:12.798Z,24.75
2019-03-03T19:35:16.515Z,20.97
2019-03-03T20:05:20.260Z,17.25
2019-03-03T20:35:25.064Z,18.02
2019-03-03T21:05:28.780Z,12.85
2019-03-03T21:35:32.507Z,14.38
2019-03-03T22:05:36.275Z,15.48
2019-03-03T22:35:40.149Z,21.00
2019-03-03T23:05:53.000Z,17.95
